Cascadia, Oregon
Current Conditions -  °F | °C
As of 8:15 PM on Sunday 23 Nov 2014 (Local Time) from KCVO Reporting Station
Overcast Overcast  
Wind Chill: 45°   Ceiling: 7000
Heat Index: 48°   Visibility: 10mi
Dew Point: 46°   Wind: 7mph
Humidity: 93%   Direction: 160°SSE
Pressure: 30.35"   Gusts: NA
Location:  44.4°N, 122.48°W
Report Text: KCVO 240415Z AUTO 16006KT 10SM OVC070 09/08 A3035 RMK AO1
Loading
Personal Weather Stations






























Interactive Weather Map New forecast layout! Learn more

10-Day Weather Forecast

Advertisements
Track Severe Weather on mobile